Time;durP1;ratioP1;P1;durP2;ratioP2;P2;SDS_P1;SDS_P2;PMS_P1;PMS_P2;Temp;Humidity;BMP_temperature;BMP_pressure;BME280_temperature;BME280_humidity;BME280_pressure;Samples;Min_cycle;Max_cycle;Signal;HPM_P1;HPM_P2
2023/01/30 00:00:23;;;;;;;;;;;;;;;1.56;75.10;100934.66;4121070;28;20013;-64
2023/01/30 00:02:25;;;;;;;;;;;;;;;1.56;75.10;100928.50;4120435;28;19965;-63
2023/01/30 00:04:27;;;;;;;;;;;;;;;1.56;75.24;100929.31;4121937;28;20402;-63
2023/01/30 00:06:29;;;;;;;;;;;;;;;1.56;74.83;100917.84;4121901;28;20025;-63
2023/01/30 00:08:32;;;;;;;;;;;;;;;1.56;74.83;100915.19;4121208;28;20099;-63
2023/01/30 00:10:34;;;;;;;;;;;;;;;1.54;74.93;100922.44;4121517;28;20041;-63
2023/01/30 00:12:36;;;;;;;;;;;;;;;1.51;74.61;100918.19;4120939;28;20012;-61
2023/01/30 00:14:38;;;;;;;;;;;;;;;1.52;74.71;100905.72;4122299;28;20013;-63
2023/01/30 00:16:40;;;;;;;;;;;;;;;1.51;74.38;100896.06;4120383;28;20021;-63
2023/01/30 00:18:42;;;;;;;;;;;;;;;1.46;74.48;100888.41;4119590;28;20017;-63
2023/01/30 00:20:44;;;;;;;;;;;;;;;1.44;74.81;100877.00;4119485;28;20020;-63
2023/01/30 00:22:46;;;;;;;;;;;;;;;1.46;74.83;100876.88;4120760;28;20016;-62
2023/01/30 00:24:50;;;;;;;;;;;;;;;1.44;74.84;100885.84;4120718;28;20444;-63
2023/01/30 00:26:52;;;;;;;;;;;;;;;1.44;74.71;100879.66;4120910;28;20125;-63
2023/01/30 00:28:54;;;;;;;;;;;;;;;1.48;74.71;100856.34;4120451;28;20026;-63
2023/01/30 00:30:56;;;;;;;;;;;;;;;1.42;74.40;100858.47;4118945;28;20624;-62
2023/01/30 00:32:58;;;;;;;;;;;;;;;1.44;74.63;100837.06;4119362;28;20037;-63
2023/01/30 00:35:00;;;;;;;;;;;;;;;1.48;74.72;100846.53;4119559;28;20033;-62
2023/01/30 00:37:03;;;;;;;;;;;;;;;1.43;74.40;100838.91;4119482;28;19968;-63
2023/01/30 00:39:06;;;;;;;;;;;;;;;1.44;74.48;100826.44;4119643;28;20024;-63
2023/01/30 00:41:17;;;;;;;;;;;;;;;1.40;74.52;100809.84;4119462;28;20028;-63
2023/01/30 00:47:59;;;;;;;;;;;;;;;1.41;74.09;100771.63;4120913;28;20041;-63
2023/01/30 00:50:01;;;;;;;;;;;;;;;1.41;74.29;100766.31;4120523;28;20370;-63
2023/01/30 00:52:03;;;;;;;;;;;;;;;1.42;74.49;100768.00;4120313;28;20530;-63
2023/01/30 00:54:05;;;;;;;;;;;;;;;1.44;74.38;100752.78;4119923;28;20024;-64
2023/01/30 00:56:07;;;;;;;;;;;;;;;1.42;74.05;100733.41;4119841;28;20022;-63
2023/01/30 00:58:12;;;;;;;;;;;;;;;1.37;73.84;100724.91;4121324;28;20745;-63
2023/01/30 01:00:16;;;;;;;;;;;;;;;1.30;73.58;100730.84;4119669;28;20037;-62
2023/01/30 01:02:18;;;;;;;;;;;;;;;1.29;74.01;100710.53;4121110;28;20022;-61
2023/01/30 01:04:20;;;;;;;;;;;;;;;1.28;73.64;100706.16;4121102;28;20049;-61
2023/01/30 01:06:23;;;;;;;;;;;;;;;1.25;73.95;100702.78;4121156;28;20028;-61
2023/01/30 01:08:25;;;;;;;;;;;;;;;1.25;74.22;100702.78;4119767;28;20042;-61
2023/01/30 01:10:27;;;;;;;;;;;;;;;1.29;74.33;100737.13;4119815;28;20026;-62
2023/01/30 01:12:29;;;;;;;;;;;;;;;1.36;74.29;100709.06;4120598;28;20025;-63
2023/01/30 01:14:32;;;;;;;;;;;;;;;1.35;74.45;100705.56;4122197;28;20024;-63
2023/01/30 01:16:35;;;;;;;;;;;;;;;1.37;74.50;100738.22;4119981;28;20024;-62
2023/01/30 01:18:37;;;;;;;;;;;;;;;1.35;74.15;100702.03;4120502;28;19950;-61
2023/01/30 01:20:38;;;;;;;;;;;;;;;1.35;73.88;100720.66;4119009;28;20021;-62
2023/01/30 01:22:40;;;;;;;;;;;;;;;1.31;73.72;100701.44;4120636;28;20030;-61
2023/01/30 01:24:42;;;;;;;;;;;;;;;1.26;73.95;100674.34;4118700;28;20028;-63
2023/01/30 01:26:44;;;;;;;;;;;;;;;1.22;74.10;100655.13;4120933;28;20012;-63
2023/01/30 01:28:46;;;;;;;;;;;;;;;1.26;74.22;100645.09;4120741;28;20009;-61
2023/01/30 01:30:50;;;;;;;;;;;;;;;1.26;74.27;100648.59;4117407;28;20025;-63
2023/01/30 01:32:52;;;;;;;;;;;;;;;1.24;74.24;100639.03;4126806;28;20025;-63
2023/01/30 01:34:54;;;;;;;;;;;;;;;1.20;73.91;100632.25;4119238;28;20534;-63
2023/01/30 01:36:56;;;;;;;;;;;;;;;1.19;74.47;100644.72;4120607;28;20561;-63
2023/01/30 01:38:58;;;;;;;;;;;;;;;1.26;74.59;100647.75;4120171;28;20388;-63
2023/01/30 01:41:01;;;;;;;;;;;;;;;1.26;74.07;100642.41;4121889;28;20029;-63
2023/01/30 01:43:03;;;;;;;;;;;;;;;1.23;74.21;100638.19;4122957;28;20033;-62
2023/01/30 01:45:24;;;;;;;;;;;;;;;1.22;74.28;100647.16;4121887;28;20021;-62
2023/01/30 01:47:27;;;;;;;;;;;;;;;1.25;74.48;100652.22;4122860;28;20040;-63
2023/01/30 01:49:31;;;;;;;;;;;;;;;1.27;74.50;100684.03;4123041;28;20435;-63
2023/01/30 01:51:34;;;;;;;;;;;;;;;1.30;74.53;100670.50;4122456;28;20464;-64
2023/01/30 01:53:37;;;;;;;;;;;;;;;1.31;74.40;100660.69;4121170;28;20021;-62
2023/01/30 01:55:39;;;;;;;;;;;;;;;1.28;74.02;100651.13;4129573;28;20017;-63
2023/01/30 01:57:42;;;;;;;;;;;;;;;1.28;74.21;100642.31;4123538;28;20020;-63
2023/01/30 01:59:44;;;;;;;;;;;;;;;1.28;74.19;100650.28;4121549;28;20432;-63
2023/01/30 02:01:46;;;;;;;;;;;;;;;1.29;74.31;100641.34;4113616;28;20361;-63
2023/01/30 02:03:50;;;;;;;;;;;;;;;1.30;74.48;100633.25;4124239;28;20440;-63
2023/01/30 02:05:53;;;;;;;;;;;;;;;1.30;74.23;100613.75;4122707;28;20032;-63
2023/01/30 02:07:58;;;;;;;;;;;;;;;1.31;74.28;100618.13;4121594;28;20009;-63
2023/01/30 02:10:01;;;;;;;;;;;;;;;1.33;74.29;100619.66;4129851;28;20782;-63
2023/01/30 02:12:03;;;;;;;;;;;;;;;1.35;74.57;100584.97;4122797;28;20024;-63
2023/01/30 02:14:07;;;;;;;;;;;;;;;1.36;74.42;100610.63;4122648;28;20021;-63
2023/01/30 02:16:09;;;;;;;;;;;;;;;1.32;74.41;100578.09;4120206;28;20397;-63
2023/01/30 02:18:12;;;;;;;;;;;;;;;1.33;74.32;100571.78;4123294;28;20020;-61
2023/01/30 02:20:19;;;;;;;;;;;;;;;1.31;74.32;100557.75;4123308;28;20575;-64
2023/01/30 02:22:33;;;;;;;;;;;;;;;1.32;74.61;100563.94;4122516;28;20025;-62
2023/01/30 02:24:39;;;;;;;;;;;;;;;1.31;74.67;100552.44;4121121;28;20024;-62
2023/01/30 02:27:00;;;;;;;;;;;;;;;1.30;75.02;100552.56;4123056;28;20037;-63
2023/01/30 02:29:08;;;;;;;;;;;;;;;1.30;75.14;100547.22;4136193;28;20016;-62
2023/01/30 02:31:14;;;;;;;;;;;;;;;1.31;75.41;100507.19;4121551;28;20020;-62
2023/01/30 02:33:17;;;;;;;;;;;;;;;1.31;75.17;100509.03;4122060;28;20018;-62
2023/01/30 02:35:22;;;;;;;;;;;;;;;1.33;75.15;100513.22;4122137;28;20017;-63
2023/01/30 02:37:28;;;;;;;;;;;;;;;1.36;75.36;100512.16;4122648;28;20010;-61
2023/01/30 02:39:32;;;;;;;;;;;;;;;1.35;75.31;100519.31;4122458;28;20025;-63
2023/01/30 02:41:36;;;;;;;;;;;;;;;1.32;75.07;100498.25;4121988;28;19929;-62
2023/01/30 02:43:39;;;;;;;;;;;;;;;1.35;75.31;100510.44;4121400;28;20028;-62
2023/01/30 02:45:42;;;;;;;;;;;;;;;1.35;75.03;100519.31;4121674;28;20052;-64
2023/01/30 02:47:49;;;;;;;;;;;;;;;1.34;75.27;100517.59;4120552;28;20016;-61
2023/01/30 02:49:52;;;;;;;;;;;;;;;1.38;75.26;100505.75;4121285;28;20017;-62
2023/01/30 02:51:54;;;;;;;;;;;;;;;1.39;75.16;100515.41;4128072;28;20083;-62
2023/01/30 02:53:56;;;;;;;;;;;;;;;1.36;75.26;100488.19;4120756;28;20020;-63
2023/01/30 02:55:58;;;;;;;;;;;;;;;1.34;75.20;100485.66;4121414;28;20020;-62
2023/01/30 02:58:00;;;;;;;;;;;;;;;1.32;75.55;100481.47;4137873;28;20010;-63
2023/01/30 03:00:03;;;;;;;;;;;;;;;1.33;75.64;100468.00;4123092;28;20024;-63
2023/01/30 03:02:27;;;;;;;;;;;;;;;1.31;76.17;100459.31;4120455;28;19933;-63
2023/01/30 03:04:39;;;;;;;;;;;;;;;1.32;76.20;100447.69;4115378;28;20024;-63
2023/01/30 03:06:44;;;;;;;;;;;;;;;1.35;76.22;100451.91;4121906;28;20017;-61
2023/01/30 03:08:48;;;;;;;;;;;;;;;1.36;76.44;100446.47;4121827;28;20029;-64
2023/01/30 03:10:52;;;;;;;;;;;;;;;1.36;76.40;100435.81;4121997;28;20356;-62
2023/01/30 03:12:55;;;;;;;;;;;;;;;1.32;76.80;100425.59;4121088;28;20005;-63
2023/01/30 03:14:59;;;;;;;;;;;;;;;1.29;77.06;100429.31;4121960;28;20860;-62
2023/01/30 03:17:01;;;;;;;;;;;;;;;1.28;77.07;100432.94;4122792;28;20037;-62
2023/01/30 03:19:04;;;;;;;;;;;;;;;1.26;77.25;100433.06;4136763;28;20523;-63
2023/01/30 03:21:08;;;;;;;;;;;;;;;1.26;77.42;100429.56;4127554;28;19997;-63
2023/01/30 03:23:10;;;;;;;;;;;;;;;1.25;77.18;100417.22;4122221;28;20424;-62
2023/01/30 03:25:13;;;;;;;;;;;;;;;1.21;77.41;100423.78;4120829;28;20028;-63
2023/01/30 03:27:15;;;;;;;;;;;;;;;1.24;77.30;100410.25;4136927;28;20012;-63
2023/01/30 03:29:17;;;;;;;;;;;;;;;1.26;77.44;100418.94;4121820;28;20020;-62
2023/01/30 03:31:19;;;;;;;;;;;;;;;1.23;77.49;100403.22;4119234;28;20017;-62
2023/01/30 03:33:21;;;;;;;;;;;;;;;1.22;77.60;100393.53;4121718;28;20024;-62
2023/01/30 03:35:24;;;;;;;;;;;;;;;1.23;77.57;100397.91;4127806;28;20028;-64
2023/01/30 03:37:27;;;;;;;;;;;;;;;1.24;77.24;100399.59;4128001;28;20499;-63
2023/01/30 03:39:29;;;;;;;;;;;;;;;1.27;77.47;100407.31;4128808;28;20020;-63
2023/01/30 03:41:31;;;;;;;;;;;;;;;1.28;77.23;100405.50;4119954;28;20389;-63
2023/01/30 03:43:36;;;;;;;;;;;;;;;1.28;77.25;100400.19;4121843;28;19993;-63
2023/01/30 03:45:40;;;;;;;;;;;;;;;1.26;77.24;100387.00;4120081;28;20373;-63
2023/01/30 03:47:42;;;;;;;;;;;;;;;1.25;77.29;100393.28;4121078;28;20021;-61
2023/01/30 03:49:44;;;;;;;;;;;;;;;1.25;77.34;100402.13;4120695;28;20016;-63
2023/01/30 03:51:46;;;;;;;;;;;;;;;1.29;77.24;100381.44;4120698;28;20016;-63
2023/01/30 03:53:50;;;;;;;;;;;;;;;1.28;77.39;100379.72;4120628;28;20063;-61
2023/01/30 03:55:52;;;;;;;;;;;;;;;1.27;77.45;100375.41;4121668;28;20021;-63
2023/01/30 03:58:00;;;;;;;;;;;;;;;1.23;77.66;100366.81;4121496;28;20017;-62
2023/01/30 04:00:05;;;;;;;;;;;;;;;1.28;77.31;100363.75;4120863;28;20026;-62
2023/01/30 04:02:21;;;;;;;;;;;;;;;1.28;77.39;100371.75;4121190;28;20020;-63
2023/01/30 04:04:23;;;;;;;;;;;;;;;1.28;77.46;100355.78;4119008;28;19970;-62
2023/01/30 04:06:25;;;;;;;;;;;;;;;1.26;77.61;100347.94;4119538;28;20034;-62
2023/01/30 04:08:27;;;;;;;;;;;;;;;1.32;77.51;100359.06;4119947;28;20025;-63
2023/01/30 04:10:31;;;;;;;;;;;;;;;1.32;77.36;100356.41;4136134;28;20032;-61
2023/01/30 04:12:33;;;;;;;;;;;;;;;1.34;77.49;100336.66;4120595;28;20073;-62
2023/01/30 04:14:36;;;;;;;;;;;;;;;1.32;77.37;100322.66;4119752;28;20036;-63
2023/01/30 04:16:55;;;;;;;;;;;;;;;1.32;77.79;100327.97;4118824;28;20017;-62
2023/01/30 04:19:20;;;;;;;;;;;;;;;1.32;77.65;100321.81;4120526;28;20008;-62
2023/01/30 04:21:22;;;;;;;;;;;;;;;1.34;77.64;100319.84;4120676;28;20024;-63
2023/01/30 04:23:24;;;;;;;;;;;;;;;1.37;77.71;100311.63;4119315;28;20017;-63
2023/01/30 04:25:26;;;;;;;;;;;;;;;1.40;77.68;100314.03;4120089;28;19969;-62
2023/01/30 04:27:30;;;;;;;;;;;;;;;1.42;77.66;100312.06;4118556;28;20519;-62
2023/01/30 04:29:46;;;;;;;;;;;;;;;1.41;77.74;100318.34;4119965;28;20054;-63
2023/01/30 04:31:48;;;;;;;;;;;;;;;1.40;77.85;100309.53;4119998;28;20028;-63
2023/01/30 04:34:03;;;;;;;;;;;;;;;1.42;77.73;100312.06;4119199;28;20076;-62
2023/01/30 04:36:06;;;;;;;;;;;;;;;1.44;77.45;100310.13;4119399;28;20009;-62
2023/01/30 04:38:08;;;;;;;;;;;;;;;1.47;77.35;100309.03;4119400;28;20029;-63
2023/01/30 04:40:12;;;;;;;;;;;;;;;1.42;77.63;100307.59;4119625;28;20527;-63
2023/01/30 04:42:14;;;;;;;;;;;;;;;1.47;77.62;100303.69;4119136;28;20017;-63
2023/01/30 04:44:28;;;;;;;;;;;;;;;1.47;77.67;100298.38;4120729;28;20013;-63
2023/01/30 04:46:47;;;;;;;;;;;;;;;1.50;77.32;100293.63;4120133;28;19937;-63
2023/01/30 04:48:50;;;;;;;;;;;;;;;1.51;77.44;100286.50;4120189;28;20032;-63
2023/01/30 04:50:53;;;;;;;;;;;;;;;1.49;77.71;100285.78;4135140;28;20458;-62
2023/01/30 04:52:55;;;;;;;;;;;;;;;1.54;77.37;100289.75;4135443;28;20024;-62
2023/01/30 04:54:57;;;;;;;;;;;;;;;1.53;77.45;100273.91;4120540;28;20012;-63
2023/01/30 04:56:59;;;;;;;;;;;;;;;1.53;77.60;100263.25;4111048;28;20033;-63
2023/01/30 04:59:00;;;;;;;;;;;;;;;1.58;77.37;100269.03;4120508;28;20026;-63
2023/01/30 05:01:16;;;;;;;;;;;;;;;1.58;77.33;100287.66;4118724;28;20362;-62
2023/01/30 05:03:18;;;;;;;;;;;;;;;1.60;77.34;100267.09;4135073;28;20028;-62
2023/01/30 05:05:20;;;;;;;;;;;;;;;1.65;77.03;100256.06;4120791;28;20020;-63
2023/01/30 05:07:22;;;;;;;;;;;;;;;1.64;77.11;100263.19;4120431;28;19926;-63
2023/01/30 05:09:24;;;;;;;;;;;;;;;1.65;77.20;100256.06;4121520;28;20018;-63
2023/01/30 05:11:27;;;;;;;;;;;;;;;1.63;77.56;100250.88;4119844;28;20033;-63
2023/01/30 05:13:29;;;;;;;;;;;;;;;1.66;77.72;100236.44;4120496;28;20052;-62
2023/01/30 05:15:31;;;;;;;;;;;;;;;1.68;78.40;100248.66;4121220;28;20033;-64
2023/01/30 05:17:35;;;;;;;;;;;;;;;1.69;77.90;100242.31;4122392;28;20041;-63
2023/01/30 05:19:37;;;;;;;;;;;;;;;1.69;77.68;100229.00;4124049;28;20050;-63
2023/01/30 05:21:39;;;;;;;;;;;;;;;1.70;77.80;100225.38;4122849;28;20032;-63
2023/01/30 05:23:41;;;;;;;;;;;;;;;1.74;77.73;100228.63;4124409;28;20098;-63
2023/01/30 05:25:43;;;;;;;;;;;;;;;1.72;77.75;100223.44;4121558;28;20377;-62
2023/01/30 05:27:45;;;;;;;;;;;;;;;1.69;77.89;100229.00;4123002;28;19934;-63
2023/01/30 05:29:47;;;;;;;;;;;;;;;1.66;78.25;100234.59;4123641;28;20016;-63
2023/01/30 05:31:49;;;;;;;;;;;;;;;1.65;78.57;100224.94;4121844;28;20006;-63
2023/01/30 05:33:52;;;;;;;;;;;;;;;1.65;78.50;100230.28;4123217;28;20037;-63
2023/01/30 05:35:54;;;;;;;;;;;;;;;1.61;78.92;100218.19;4122342;28;20020;-63
2023/01/30 05:37:56;;;;;;;;;;;;;;;1.63;79.15;100208.28;4123417;28;20025;-63
2023/01/30 05:39:58;;;;;;;;;;;;;;;1.63;78.94;100210.94;4123405;28;20384;-63
2023/01/30 05:42:00;;;;;;;;;;;;;;;1.60;79.40;100208.53;4123558;28;20013;-63
2023/01/30 05:44:02;;;;;;;;;;;;;;;1.61;79.32;100215.53;4123465;28;20030;-63
2023/01/30 05:46:05;;;;;;;;;;;;;;;1.62;79.24;100212.75;4122573;28;20017;-63
2023/01/30 05:48:07;;;;;;;;;;;;;;;1.61;79.08;100194.22;4122776;28;20480;-63
2023/01/30 05:50:11;;;;;;;;;;;;;;;1.60;79.52;100192.56;4122774;28;20020;-63
2023/01/30 05:52:13;;;;;;;;;;;;;;;1.58;80.23;100186.50;4122492;28;20013;-63
2023/01/30 05:54:15;;;;;;;;;;;;;;;1.59;80.23;100197.03;4123071;28;20028;-63
2023/01/30 05:56:18;;;;;;;;;;;;;;;1.59;80.33;100188.22;4123036;28;20006;-63
2023/01/30 05:58:20;;;;;;;;;;;;;;;1.60;79.85;100172.09;4123013;28;20009;-63
2023/01/30 06:00:22;;;;;;;;;;;;;;;1.60;79.70;100177.44;4122143;28;20013;-64
2023/01/30 06:02:24;;;;;;;;;;;;;;;1.64;79.67;100163.84;4122937;28;20021;-63
2023/01/30 06:04:26;;;;;;;;;;;;;;;1.58;80.13;100166.09;4122235;28;20024;-63
2023/01/30 06:06:29;;;;;;;;;;;;;;;1.58;80.46;100167.88;4121223;28;20021;-62
2023/01/30 06:08:31;;;;;;;;;;;;;;;1.56;80.82;100169.84;4121828;28;19930;-63
2023/01/30 06:10:33;;;;;;;;;;;;;;;1.54;81.14;100162.00;4121154;28;20041;-64
2023/01/30 06:12:35;;;;;;;;;;;;;;;1.51;81.52;100167.56;4121522;28;20375;-63
2023/01/30 06:14:37;;;;;;;;;;;;;;;1.51;81.31;100164.09;4121883;28;20025;-64
2023/01/30 06:16:39;;;;;;;;;;;;;;;1.52;81.31;100149.78;4122110;28;20032;-63
2023/01/30 06:18:41;;;;;;;;;;;;;;;1.55;81.05;100146.84;4123383;28;20017;-63
2023/01/30 06:20:46;;;;;;;;;;;;;;;1.55;80.84;100153.03;4121577;28;20028;-63
2023/01/30 06:22:50;;;;;;;;;;;;;;;1.59;80.50;100159.75;4123019;28;20007;-64
2023/01/30 06:24:52;;;;;;;;;;;;;;;1.64;80.30;100154.03;4123391;28;20025;-63
2023/01/30 06:26:54;;;;;;;;;;;;;;;1.64;80.51;100137.25;4121140;28;20550;-63
2023/01/30 06:28:56;;;;;;;;;;;;;;;1.66;80.83;100161.91;4122063;28;19925;-63
2023/01/30 06:30:57;;;;;;;;;;;;;;;1.68;80.62;100146.63;4122163;28;20017;-63
2023/01/30 06:32:59;;;;;;;;;;;;;;;1.66;80.55;100144.09;4122605;28;20032;-63
2023/01/30 06:35:01;;;;;;;;;;;;;;;1.69;80.80;100138.50;4121993;28;20021;-63
2023/01/30 06:37:03;;;;;;;;;;;;;;;1.68;80.85;100157.28;4121898;28;20017;-62
2023/01/30 06:39:07;;;;;;;;;;;;;;;1.67;80.97;100156.44;4121482;28;20531;-62
2023/01/30 06:41:09;;;;;;;;;;;;;;;1.66;80.81;100159.22;4121583;28;20012;-61
2023/01/30 06:43:10;;;;;;;;;;;;;;;1.68;81.07;100150.16;4121529;28;20016;-63
2023/01/30 06:45:13;;;;;;;;;;;;;;;1.72;80.47;100159.53;4122761;28;20480;-62
2023/01/30 06:47:15;;;;;;;;;;;;;;;1.76;80.28;100154.81;4120257;28;20891;-62
2023/01/30 06:49:17;;;;;;;;;;;;;;;1.79;80.05;100167.84;4121885;28;20051;-63
2023/01/30 06:51:19;;;;;;;;;;;;;;;1.77;80.58;100162.66;4122416;28;20029;-62
2023/01/30 06:53:24;;;;;;;;;;;;;;;1.75;81.37;100167.25;4121812;28;20110;-62
2023/01/30 06:55:27;;;;;;;;;;;;;;;1.76;81.36;100152.13;4120388;28;20032;-62
2023/01/30 06:57:29;;;;;;;;;;;;;;;1.77;81.17;100157.34;4122012;28;20033;-59
2023/01/30 06:59:31;;;;;;;;;;;;;;;1.78;81.26;100153.66;4121467;28;20021;-62
2023/01/30 07:01:33;;;;;;;;;;;;;;;1.75;80.93;100143.28;4119111;28;19961;-62
2023/01/30 07:03:35;;;;;;;;;;;;;;;1.79;80.72;100160.69;4120887;28;20009;-62
2023/01/30 07:05:37;;;;;;;;;;;;;;;1.80;80.54;100141.09;4120631;28;20020;-60
2023/01/30 07:07:39;;;;;;;;;;;;;;;1.81;80.46;100139.25;4120373;28;20024;-62
2023/01/30 07:09:41;;;;;;;;;;;;;;;1.85;80.35;100138.03;4120799;28;20028;-63
2023/01/30 07:11:46;;;;;;;;;;;;;;;1.87;80.48;100132.56;4120503;28;20013;-63
2023/01/30 07:13:48;;;;;;;;;;;;;;;1.89;80.00;100128.75;4121075;28;20009;-63
2023/01/30 07:15:50;;;;;;;;;;;;;;;1.90;80.10;100122.47;4120554;28;20016;-63
2023/01/30 07:17:52;;;;;;;;;;;;;;;1.89;80.13;100125.28;4119257;28;20026;-63
2023/01/30 07:19:54;;;;;;;;;;;;;;;1.89;80.23;100127.94;4120780;28;20021;-63
2023/01/30 07:21:56;;;;;;;;;;;;;;;1.89;80.01;100133.25;4120863;28;20029;-61
2023/01/30 07:23:58;;;;;;;;;;;;;;;1.91;81.02;100131.28;4121787;28;20013;-63
2023/01/30 07:26:02;;;;;;;;;;;;;;;1.90;80.49;100125.13;4120493;28;20013;-63
2023/01/30 07:28:06;;;;;;;;;;;;;;;1.91;80.68;100133.94;4120754;28;20017;-63
2023/01/30 07:30:09;;;;;;;;;;;;;;;1.94;80.65;100115.03;4122562;28;19983;-63
2023/01/30 07:32:13;;;;;;;;;;;;;;;1.92;80.61;100101.84;4119994;28;20408;-63
2023/01/30 07:34:15;;;;;;;;;;;;;;;1.92;81.79;100115.19;4121611;28;20439;-62
2023/01/30 07:36:17;;;;;;;;;;;;;;;1.94;81.27;100115.03;4121512;28;20001;-64
2023/01/30 07:38:18;;;;;;;;;;;;;;;1.95;80.79;100114.06;4120883;28;20890;-63
2023/01/30 07:40:21;;;;;;;;;;;;;;;1.96;81.17;100110.44;4120246;28;20017;-63
2023/01/30 07:42:23;;;;;;;;;;;;;;;1.97;81.92;100104.13;4120985;28;20028;-64
2023/01/30 07:44:28;;;;;;;;;;;;;;;1.89;81.17;100090.66;4119904;28;20025;-63
2023/01/30 07:46:33;;;;;;;;;;;;;;;1.95;81.32;100108.75;4118663;28;20018;-63
2023/01/30 07:48:35;;;;;;;;;;;;;;;1.96;81.75;100123.75;4116587;28;20029;-64
2023/01/30 07:50:37;;;;;;;;;;;;;;;2.00;81.25;100108.34;4117552;28;19934;-63
2023/01/30 07:52:39;;;;;;;;;;;;;;;2.00;81.13;100113.66;4118181;28;20013;-63
2023/01/30 07:54:41;;;;;;;;;;;;;;;2.01;81.46;100132.16;4119369;28;20021;-63
2023/01/30 07:56:43;;;;;;;;;;;;;;;2.02;81.34;100122.34;4115694;28;20032;-63
2023/01/30 07:58:45;;;;;;;;;;;;;;;2.03;80.87;100118.72;4117762;28;20655;-63
2023/01/30 08:00:49;;;;;;;;;;;;;;;2.06;80.54;100127.25;4120030;28;20017;-63
2023/01/30 08:02:51;;;;;;;;;;;;;;;2.07;80.32;100115.66;4119986;28;20021;-62
2023/01/30 08:04:52;;;;;;;;;;;;;;;2.07;80.35;100122.78;4121168;28;20028;-62
2023/01/30 08:06:54;;;;;;;;;;;;;;;2.07;80.29;100130.75;4119694;28;20017;-63
2023/01/30 08:08:56;;;;;;;;;;;;;;;2.08;80.54;100132.47;4117174;28;20459;-63
2023/01/30 08:10:58;;;;;;;;;;;;;;;2.06;81.59;100137.91;4114500;28;19930;-63
2023/01/30 08:13:00;;;;;;;;;;;;;;;2.05;80.96;100122.06;4123945;28;20004;-63
2023/01/30 08:15:02;;;;;;;;;;;;;;;2.07;80.88;100114.78;4116351;28;20028;-63
2023/01/30 08:17:05;;;;;;;;;;;;;;;2.07;81.00;100120.97;4114990;28;20633;-62
2023/01/30 08:19:07;;;;;;;;;;;;;;;2.10;81.12;100125.16;4115836;28;20374;-63
2023/01/30 08:21:09;;;;;;;;;;;;;;;2.10;81.05;100114.50;4117581;28;20021;-63
2023/01/30 08:23:11;;;;;;;;;;;;;;;2.12;81.08;100124.06;4116363;28;20016;-62
2023/01/30 08:25:13;;;;;;;;;;;;;;;2.12;80.45;100124.06;4118431;28;20387;-63
2023/01/30 08:27:15;;;;;;;;;;;;;;;2.14;80.74;100115.94;4118527;28;20025;-62
2023/01/30 08:29:17;;;;;;;;;;;;;;;2.14;80.63;100122.09;4118707;28;20029;-63
2023/01/30 08:31:19;;;;;;;;;;;;;;;2.16;80.64;100133.47;4119267;28;20463;-61
2023/01/30 08:33:23;;;;;;;;;;;;;;;2.14;80.68;100110.59;4120469;28;20001;-62
2023/01/30 08:35:25;;;;;;;;;;;;;;;2.16;80.63;100113.97;4120232;28;20032;-63
2023/01/30 08:37:27;;;;;;;;;;;;;;;2.18;80.77;100096.03;4119958;28;20013;-63
2023/01/30 08:39:29;;;;;;;;;;;;;;;2.21;80.53;100090.44;4120745;28;20384;-63
2023/01/30 08:41:31;;;;;;;;;;;;;;;2.23;80.13;100092.94;4119168;28;20021;-63
2023/01/30 08:43:33;;;;;;;;;;;;;;;2.23;80.67;100099.13;4118508;28;20021;-63
2023/01/30 08:45:35;;;;;;;;;;;;;;;2.26;80.58;100114.00;4119717;28;20439;-63
2023/01/30 08:47:37;;;;;;;;;;;;;;;2.25;80.65;100102.47;4119341;28;20025;-63
2023/01/30 08:49:40;;;;;;;;;;;;;;;2.26;81.18;100108.66;4118869;28;20121;-62
2023/01/30 08:51:42;;;;;;;;;;;;;;;2.28;81.19;100109.34;4124747;28;19926;-63
2023/01/30 08:53:44;;;;;;;;;;;;;;;2.29;80.74;100103.88;4118762;28;20017;-62
2023/01/30 08:55:46;;;;;;;;;;;;;;;2.32;80.89;100114.28;4113372;28;20024;-63
2023/01/30 08:57:48;;;;;;;;;;;;;;;2.34;80.97;100120.28;4110808;28;21183;-63
2023/01/30 08:59:51;;;;;;;;;;;;;;;2.34;81.17;100114.97;4116204;28;20028;-63
2023/01/30 09:01:53;;;;;;;;;;;;;;;2.32;80.94;100111.59;4107802;28;19930;-63
2023/01/30 09:03:55;;;;;;;;;;;;;;;2.31;80.77;100109.09;4114878;28;20374;-63
2023/01/30 09:05:58;;;;;;;;;;;;;;;2.34;80.47;100117.63;4115236;28;20021;-63
2023/01/30 09:08:00;;;;;;;;;;;;;;;2.38;80.83;100107.53;4115200;28;20022;-62
2023/01/30 09:10:02;;;;;;;;;;;;;;;2.39;80.92;100114.53;4119832;28;20036;-63
2023/01/30 09:12:04;;;;;;;;;;;;;;;2.44;80.77;100111.47;4120717;28;19925;-63
2023/01/30 09:14:06;;;;;;;;;;;;;;;2.44;80.91;100114.13;4119587;28;20025;-63
2023/01/30 09:16:09;;;;;;;;;;;;;;;2.44;81.57;100109.63;4118243;28;20021;-62
2023/01/30 09:18:11;;;;;;;;;;;;;;;2.42;81.36;100116.09;4119207;28;20016;-63
2023/01/30 09:20:13;;;;;;;;;;;;;;;2.43;81.25;100115.09;4118018;28;20033;-63
2023/01/30 09:22:17;;;;;;;;;;;;;;;2.42;80.98;100116.94;4118183;28;20028;-63
2023/01/30 09:24:19;;;;;;;;;;;;;;;2.46;81.12;100114.81;4119732;28;20025;-63
2023/01/30 09:26:21;;;;;;;;;;;;;;;2.44;81.07;100122.97;4117373;28;20005;-62
2023/01/30 09:28:23;;;;;;;;;;;;;;;2.46;81.01;100121.03;4112285;28;19934;-62
2023/01/30 09:30:25;;;;;;;;;;;;;;;2.46;80.93;100117.50;4109575;28;20349;-64
2023/01/30 09:32:27;;;;;;;;;;;;;;;2.48;80.83;100112.88;4116718;28;19973;-63
2023/01/30 09:34:29;;;;;;;;;;;;;;;2.52;80.57;100124.94;4119122;28;20020;-63
2023/01/30 09:36:31;;;;;;;;;;;;;;;2.52;80.82;100124.94;4117593;28;20005;-63
2023/01/30 09:38:35;;;;;;;;;;;;;;;2.53;81.08;100119.47;4119913;28;20008;-63
2023/01/30 09:40:38;;;;;;;;;;;;;;;2.53;80.69;100127.44;4120132;28;20028;-62
2023/01/30 09:42:43;;;;;;;;;;;;;;;2.55;80.58;100132.66;4118779;28;20013;-62
2023/01/30 09:44:52;;;;;;;;;;;;;;;2.58;80.66;100129.69;4120509;28;20025;-62
2023/01/30 09:46:55;;;;;;;;;;;;;;;2.61;80.62;100125.94;4119824;28;20005;-62
2023/01/30 09:48:59;;;;;;;;;;;;;;;2.66;80.48;100134.34;4119598;28;20033;-63
2023/01/30 09:51:11;;;;;;;;;;;;;;;2.66;80.53;100123.66;4119616;28;20369;-62
2023/01/30 09:53:14;;;;;;;;;;;;;;;2.64;80.57;100122.97;4120330;28;20411;-63
2023/01/30 09:55:18;;;;;;;;;;;;;;;2.69;81.12;100118.06;4120268;28;20013;-61
2023/01/30 09:57:21;;;;;;;;;;;;;;;2.73;80.94;100116.81;4120087;28;20020;-63
2023/01/30 09:59:24;;;;;;;;;;;;;;;2.75;81.27;100111.31;4120161;28;20005;-63
2023/01/30 10:01:27;;;;;;;;;;;;;;;2.74;80.96;100112.28;4119815;28;20664;-63
2023/01/30 10:03:30;;;;;;;;;;;;;;;2.76;81.08;100116.53;4122283;28;20013;-63
2023/01/30 10:05:34;;;;;;;;;;;;;;;2.77;80.94;100110.19;4122284;28;20025;-63
2023/01/30 10:07:44;;;;;;;;;;;;;;;2.76;80.96;100113.84;4122542;28;20440;-63
2023/01/30 10:09:48;;;;;;;;;;;;;;;2.84;80.68;100108.63;4123722;28;20013;-63
2023/01/30 10:11:55;;;;;;;;;;;;;;;2.85;81.05;100106.81;4122950;28;20020;-63
2023/01/30 10:14:01;;;;;;;;;;;;;;;2.92;81.12;100113.25;4123365;28;19980;-63
2023/01/30 10:16:04;;;;;;;;;;;;;;;2.92;80.85;100107.94;4122155;28;20024;-63
2023/01/30 10:18:10;;;;;;;;;;;;;;;2.96;80.80;100100.47;4123377;28;20021;-64
2023/01/30 10:20:16;;;;;;;;;;;;;;;2.93;81.01;100093.63;4123069;28;20032;-63
2023/01/30 10:22:22;;;;;;;;;;;;;;;2.95;80.74;100098.81;4122617;28;20363;-63
2023/01/30 10:24:28;;;;;;;;;;;;;;;2.92;80.93;100099.09;4122804;28;20052;-64
2023/01/30 10:26:30;;;;;;;;;;;;;;;2.93;80.92;100103.44;4123034;28;20025;-64
2023/01/30 10:28:34;;;;;;;;;;;;;;;2.94;80.89;100110.47;4122534;28;20013;-63
2023/01/30 10:30:36;;;;;;;;;;;;;;;2.98;80.97;100095.81;4122027;28;20017;-63
2023/01/30 10:32:40;;;;;;;;;;;;;;;2.97;80.99;100102.16;4123374;28;20448;-64
2023/01/30 10:34:43;;;;;;;;;;;;;;;2.99;80.99;100098.34;4122527;28;19930;-63
2023/01/30 10:36:47;;;;;;;;;;;;;;;3.01;81.03;100091.06;4122587;28;20659;-64
2023/01/30 10:38:49;;;;;;;;;;;;;;;3.00;80.67;100094.72;4122402;28;20368;-63
2023/01/30 10:40:52;;;;;;;;;;;;;;;3.08;80.81;100087.81;4121951;28;20017;-63
2023/01/30 10:42:56;;;;;;;;;;;;;;;3.09;80.92;100095.69;4123034;28;20053;-63
2023/01/30 10:45:00;;;;;;;;;;;;;;;3.10;80.93;100102.69;4123154;28;20028;-63
2023/01/30 10:47:15;;;;;;;;;;;;;;;3.10;81.00;100089.34;4120696;28;20021;-63